sensor_id;sensor_type;location;lat;lon;timestamp;P1;durP1;ratioP1;P2;durP2;ratioP2
21825;SDS011;11075;47.944;11.776;2022-11-09T00:00:06;5.30;;;3.23;;
21825;SDS011;11075;47.944;11.776;2022-11-09T00:02:33;5.07;;;3.27;;
21825;SDS011;11075;47.944;11.776;2022-11-09T00:05:00;5.50;;;3.40;;
21825;SDS011;11075;47.944;11.776;2022-11-09T00:07:29;4.13;;;2.87;;
21825;SDS011;11075;47.944;11.776;2022-11-09T00:09:56;7.00;;;3.87;;
21825;SDS011;11075;47.944;11.776;2022-11-09T00:12:23;11.40;;;3.33;;
21825;SDS011;11075;47.944;11.776;2022-11-09T00:14:51;4.73;;;3.20;;
21825;SDS011;11075;47.944;11.776;2022-11-09T00:17:18;4.57;;;3.07;;
21825;SDS011;11075;47.944;11.776;2022-11-09T00:19:45;5.23;;;3.13;;
21825;SDS011;11075;47.944;11.776;2022-11-09T00:22:11;5.87;;;3.40;;
21825;SDS011;11075;47.944;11.776;2022-11-09T00:24:38;8.27;;;2.90;;
21825;SDS011;11075;47.944;11.776;2022-11-09T00:27:06;4.37;;;3.07;;
21825;SDS011;11075;47.944;11.776;2022-11-09T00:29:33;4.53;;;2.70;;
21825;SDS011;11075;47.944;11.776;2022-11-09T00:32:00;7.00;;;3.00;;
21825;SDS011;11075;47.944;11.776;2022-11-09T00:34:27;4.17;;;2.87;;
21825;SDS011;11075;47.944;11.776;2022-11-09T00:36:53;4.37;;;2.97;;
21825;SDS011;11075;47.944;11.776;2022-11-09T00:39:21;4.47;;;2.90;;
21825;SDS011;11075;47.944;11.776;2022-11-09T00:41:47;3.97;;;2.70;;
21825;SDS011;11075;47.944;11.776;2022-11-09T00:44:14;7.97;;;2.80;;
21825;SDS011;11075;47.944;11.776;2022-11-09T00:46:42;3.13;;;2.50;;
21825;SDS011;11075;47.944;11.776;2022-11-09T00:49:10;3.03;;;2.60;;
21825;SDS011;11075;47.944;11.776;2022-11-09T00:51:37;4.33;;;2.90;;
21825;SDS011;11075;47.944;11.776;2022-11-09T00:54:04;7.53;;;3.00;;
21825;SDS011;11075;47.944;11.776;2022-11-09T00:56:33;3.80;;;2.33;;
21825;SDS011;11075;47.944;11.776;2022-11-09T00:59:01;6.13;;;3.27;;
21825;SDS011;11075;47.944;11.776;2022-11-09T01:01:28;7.37;;;3.27;;
21825;SDS011;11075;47.944;11.776;2022-11-09T01:03:55;5.53;;;3.47;;
21825;SDS011;11075;47.944;11.776;2022-11-09T01:06:24;6.63;;;3.00;;
21825;SDS011;11075;47.944;11.776;2022-11-09T01:08:52;5.40;;;2.90;;
21825;SDS011;11075;47.944;11.776;2022-11-09T01:11:20;5.87;;;2.97;;
21825;SDS011;11075;47.944;11.776;2022-11-09T01:13:51;6.63;;;2.53;;
21825;SDS011;11075;47.944;11.776;2022-11-09T01:16:20;5.10;;;2.60;;
21825;SDS011;11075;47.944;11.776;2022-11-09T01:18:50;5.93;;;3.00;;
21825;SDS011;11075;47.944;11.776;2022-11-09T01:21:19;5.43;;;2.97;;
21825;SDS011;11075;47.944;11.776;2022-11-09T01:23:46;3.20;;;2.60;;
21825;SDS011;11075;47.944;11.776;2022-11-09T01:26:13;4.30;;;2.77;;
21825;SDS011;11075;47.944;11.776;2022-11-09T01:28:41;4.00;;;2.70;;
21825;SDS011;11075;47.944;11.776;2022-11-09T01:31:10;4.20;;;2.83;;
21825;SDS011;11075;47.944;11.776;2022-11-09T01:33:39;4.67;;;2.93;;
21825;SDS011;11075;47.944;11.776;2022-11-09T01:36:11;4.13;;;2.90;;
21825;SDS011;11075;47.944;11.776;2022-11-09T01:38:40;4.47;;;2.70;;
21825;SDS011;11075;47.944;11.776;2022-11-09T01:41:08;3.37;;;2.40;;
21825;SDS011;11075;47.944;11.776;2022-11-09T01:43:42;4.43;;;2.90;;
21825;SDS011;11075;47.944;11.776;2022-11-09T01:48:46;3.97;;;2.43;;
21825;SDS011;11075;47.944;11.776;2022-11-09T01:53:48;4.07;;;2.47;;
21825;SDS011;11075;47.944;11.776;2022-11-09T01:56:18;3.00;;;2.50;;
21825;SDS011;11075;47.944;11.776;2022-11-09T01:58:56;6.60;;;2.87;;
21825;SDS011;11075;47.944;11.776;2022-11-09T02:01:27;3.70;;;2.40;;
21825;SDS011;11075;47.944;11.776;2022-11-09T02:04:41;6.40;;;2.30;;
21825;SDS011;11075;47.944;11.776;2022-11-09T02:06:59;3.70;;;2.63;;
21825;SDS011;11075;47.944;11.776;2022-11-09T02:09:29;4.60;;;2.47;;
21825;SDS011;11075;47.944;11.776;2022-11-09T02:11:57;6.20;;;2.47;;
21825;SDS011;11075;47.944;11.776;2022-11-09T02:14:25;6.97;;;2.50;;
21825;SDS011;11075;47.944;11.776;2022-11-09T02:16:55;3.83;;;2.33;;
21825;SDS011;11075;47.944;11.776;2022-11-09T02:19:22;5.07;;;2.80;;
21825;SDS011;11075;47.944;11.776;2022-11-09T02:21:49;3.90;;;2.40;;
21825;SDS011;11075;47.944;11.776;2022-11-09T02:24:16;4.37;;;2.20;;
21825;SDS011;11075;47.944;11.776;2022-11-09T02:26:47;2.67;;;2.27;;
21825;SDS011;11075;47.944;11.776;2022-11-09T02:29:17;2.93;;;2.10;;
21825;SDS011;11075;47.944;11.776;2022-11-09T02:31:49;3.77;;;2.50;;
21825;SDS011;11075;47.944;11.776;2022-11-09T02:34:20;2.93;;;2.20;;
21825;SDS011;11075;47.944;11.776;2022-11-09T02:36:47;3.60;;;2.57;;
21825;SDS011;11075;47.944;11.776;2022-11-09T02:39:19;5.47;;;2.83;;
21825;SDS011;11075;47.944;11.776;2022-11-09T02:44:32;3.27;;;2.30;;
21825;SDS011;11075;47.944;11.776;2022-11-09T02:47:01;4.33;;;2.63;;
21825;SDS011;11075;47.944;11.776;2022-11-09T02:49:29;2.97;;;2.33;;
21825;SDS011;11075;47.944;11.776;2022-11-09T02:51:56;3.50;;;2.90;;
21825;SDS011;11075;47.944;11.776;2022-11-09T02:54:22;5.17;;;2.57;;
21825;SDS011;11075;47.944;11.776;2022-11-09T02:56:51;5.13;;;2.70;;
21825;SDS011;11075;47.944;11.776;2022-11-09T02:59:19;2.83;;;2.13;;
21825;SDS011;11075;47.944;11.776;2022-11-09T03:01:46;4.93;;;2.53;;
21825;SDS011;11075;47.944;11.776;2022-11-09T03:04:13;3.97;;;2.43;;
21825;SDS011;11075;47.944;11.776;2022-11-09T03:06:40;3.27;;;2.60;;
21825;SDS011;11075;47.944;11.776;2022-11-09T03:09:13;2.57;;;2.17;;
21825;SDS011;11075;47.944;11.776;2022-11-09T03:11:40;4.23;;;2.90;;
21825;SDS011;11075;47.944;11.776;2022-11-09T03:14:11;3.57;;;2.30;;
21825;SDS011;11075;47.944;11.776;2022-11-09T03:16:44;5.83;;;2.20;;
21825;SDS011;11075;47.944;11.776;2022-11-09T03:19:16;5.83;;;2.50;;
21825;SDS011;11075;47.944;11.776;2022-11-09T03:21:44;4.17;;;2.63;;
21825;SDS011;11075;47.944;11.776;2022-11-09T03:24:11;9.50;;;3.13;;
21825;SDS011;11075;47.944;11.776;2022-11-09T03:26:39;6.87;;;3.23;;
21825;SDS011;11075;47.944;11.776;2022-11-09T03:29:06;5.73;;;2.90;;
21825;SDS011;11075;47.944;11.776;2022-11-09T03:31:34;4.73;;;2.87;;
21825;SDS011;11075;47.944;11.776;2022-11-09T03:34:04;3.50;;;2.80;;
21825;SDS011;11075;47.944;11.776;2022-11-09T03:36:33;5.63;;;3.03;;
21825;SDS011;11075;47.944;11.776;2022-11-09T03:39:00;8.40;;;2.80;;
21825;SDS011;11075;47.944;11.776;2022-11-09T03:41:27;4.07;;;2.40;;
21825;SDS011;11075;47.944;11.776;2022-11-09T03:43:53;4.73;;;2.40;;
21825;SDS011;11075;47.944;11.776;2022-11-09T03:46:20;4.03;;;2.50;;
21825;SDS011;11075;47.944;11.776;2022-11-09T03:48:47;6.43;;;2.90;;
21825;SDS011;11075;47.944;11.776;2022-11-09T03:51:14;7.63;;;3.77;;
21825;SDS011;11075;47.944;11.776;2022-11-09T03:53:41;5.20;;;2.87;;
21825;SDS011;11075;47.944;11.776;2022-11-09T03:56:08;4.00;;;3.00;;
21825;SDS011;11075;47.944;11.776;2022-11-09T03:58:35;9.37;;;4.07;;
21825;SDS011;11075;47.944;11.776;2022-11-09T04:01:02;4.90;;;3.37;;
21825;SDS011;11075;47.944;11.776;2022-11-09T04:03:29;6.40;;;3.67;;
21825;SDS011;11075;47.944;11.776;2022-11-09T04:05:57;8.03;;;3.63;;
21825;SDS011;11075;47.944;11.776;2022-11-09T04:08:24;6.13;;;3.30;;
21825;SDS011;11075;47.944;11.776;2022-11-09T04:10:52;9.67;;;4.20;;
21825;SDS011;11075;47.944;11.776;2022-11-09T04:13:18;9.10;;;4.03;;
21825;SDS011;11075;47.944;11.776;2022-11-09T04:15:46;7.23;;;3.57;;
21825;SDS011;11075;47.944;11.776;2022-11-09T04:18:13;6.07;;;3.40;;
21825;SDS011;11075;47.944;11.776;2022-11-09T04:20:41;6.80;;;3.47;;
21825;SDS011;11075;47.944;11.776;2022-11-09T04:23:10;4.80;;;3.23;;
21825;SDS011;11075;47.944;11.776;2022-11-09T04:25:39;5.70;;;2.97;;
21825;SDS011;11075;47.944;11.776;2022-11-09T04:28:09;6.40;;;2.70;;
21825;SDS011;11075;47.944;11.776;2022-11-09T04:30:37;4.47;;;2.60;;
21825;SDS011;11075;47.944;11.776;2022-11-09T04:33:04;4.07;;;2.73;;
21825;SDS011;11075;47.944;11.776;2022-11-09T04:35:32;4.07;;;2.80;;
21825;SDS011;11075;47.944;11.776;2022-11-09T04:38:03;4.60;;;2.57;;
21825;SDS011;11075;47.944;11.776;2022-11-09T04:40:32;3.10;;;2.20;;
21825;SDS011;11075;47.944;11.776;2022-11-09T04:43:00;3.03;;;2.20;;
21825;SDS011;11075;47.944;11.776;2022-11-09T04:45:29;3.33;;;2.00;;
21825;SDS011;11075;47.944;11.776;2022-11-09T04:47:59;3.63;;;2.17;;
21825;SDS011;11075;47.944;11.776;2022-11-09T04:50:30;3.27;;;2.10;;
21825;SDS011;11075;47.944;11.776;2022-11-09T04:53:10;4.33;;;2.40;;
21825;SDS011;11075;47.944;11.776;2022-11-09T04:55:38;3.97;;;2.23;;
21825;SDS011;11075;47.944;11.776;2022-11-09T04:58:06;3.37;;;2.30;;
21825;SDS011;11075;47.944;11.776;2022-11-09T05:00:34;3.10;;;2.40;;
21825;SDS011;11075;47.944;11.776;2022-11-09T05:03:01;4.97;;;2.40;;
21825;SDS011;11075;47.944;11.776;2022-11-09T05:05:31;6.83;;;2.30;;
21825;SDS011;11075;47.944;11.776;2022-11-09T05:07:59;3.80;;;2.07;;
21825;SDS011;11075;47.944;11.776;2022-11-09T05:10:28;3.07;;;2.30;;
21825;SDS011;11075;47.944;11.776;2022-11-09T05:13:00;3.17;;;2.50;;
21825;SDS011;11075;47.944;11.776;2022-11-09T05:15:28;3.13;;;2.03;;
21825;SDS011;11075;47.944;11.776;2022-11-09T05:17:56;2.60;;;2.20;;
21825;SDS011;11075;47.944;11.776;2022-11-09T05:20:24;2.87;;;2.30;;
21825;SDS011;11075;47.944;11.776;2022-11-09T05:22:51;2.37;;;2.10;;
21825;SDS011;11075;47.944;11.776;2022-11-09T05:25:37;3.00;;;1.93;;
21825;SDS011;11075;47.944;11.776;2022-11-09T05:28:04;3.20;;;2.20;;
21825;SDS011;11075;47.944;11.776;2022-11-09T05:30:31;6.27;;;3.20;;
21825;SDS011;11075;47.944;11.776;2022-11-09T05:32:58;3.63;;;2.57;;
21825;SDS011;11075;47.944;11.776;2022-11-09T05:35:25;3.00;;;2.00;;
21825;SDS011;11075;47.944;11.776;2022-11-09T05:37:52;4.00;;;2.17;;
21825;SDS011;11075;47.944;11.776;2022-11-09T05:40:19;4.07;;;2.97;;
21825;SDS011;11075;47.944;11.776;2022-11-09T05:42:46;4.47;;;1.77;;
21825;SDS011;11075;47.944;11.776;2022-11-09T05:45:14;2.70;;;1.93;;
21825;SDS011;11075;47.944;11.776;2022-11-09T05:48:02;2.83;;;2.07;;
21825;SDS011;11075;47.944;11.776;2022-11-09T05:50:30;2.33;;;1.73;;
21825;SDS011;11075;47.944;11.776;2022-11-09T05:53:10;5.10;;;2.83;;
21825;SDS011;11075;47.944;11.776;2022-11-09T05:55:38;5.53;;;2.40;;
21825;SDS011;11075;47.944;11.776;2022-11-09T05:58:05;3.93;;;2.23;;
21825;SDS011;11075;47.944;11.776;2022-11-09T06:00:32;2.63;;;1.90;;
21825;SDS011;11075;47.944;11.776;2022-11-09T06:03:02;3.17;;;1.80;;
21825;SDS011;11075;47.944;11.776;2022-11-09T06:05:34;4.30;;;1.90;;
21825;SDS011;11075;47.944;11.776;2022-11-09T06:08:09;2.23;;;1.70;;
21825;SDS011;11075;47.944;11.776;2022-11-09T06:10:39;2.30;;;1.60;;
21825;SDS011;11075;47.944;11.776;2022-11-09T06:13:07;4.83;;;2.13;;
21825;SDS011;11075;47.944;11.776;2022-11-09T06:15:35;2.80;;;2.07;;
21825;SDS011;11075;47.944;11.776;2022-11-09T06:18:01;3.47;;;2.20;;
21825;SDS011;11075;47.944;11.776;2022-11-09T06:20:28;2.13;;;1.80;;
21825;SDS011;11075;47.944;11.776;2022-11-09T06:22:57;2.40;;;1.80;;
21825;SDS011;11075;47.944;11.776;2022-11-09T06:25:30;5.20;;;2.13;;
21825;SDS011;11075;47.944;11.776;2022-11-09T06:27:58;2.40;;;2.00;;
21825;SDS011;11075;47.944;11.776;2022-11-09T06:30:25;3.63;;;2.10;;
21825;SDS011;11075;47.944;11.776;2022-11-09T06:35:28;3.27;;;2.50;;
21825;SDS011;11075;47.944;11.776;2022-11-09T06:37:58;2.53;;;1.93;;
21825;SDS011;11075;47.944;11.776;2022-11-09T06:40:26;3.23;;;1.90;;
21825;SDS011;11075;47.944;11.776;2022-11-09T06:42:58;2.27;;;1.80;;
21825;SDS011;11075;47.944;11.776;2022-11-09T06:45:26;2.67;;;1.73;;
21825;SDS011;11075;47.944;11.776;2022-11-09T06:47:59;5.73;;;2.60;;
21825;SDS011;11075;47.944;11.776;2022-11-09T06:50:29;3.87;;;2.40;;
21825;SDS011;11075;47.944;11.776;2022-11-09T06:52:59;3.10;;;1.90;;
21825;SDS011;11075;47.944;11.776;2022-11-09T06:55:28;3.40;;;2.33;;
21825;SDS011;11075;47.944;11.776;2022-11-09T06:57:57;2.77;;;2.10;;
21825;SDS011;11075;47.944;11.776;2022-11-09T07:00:25;2.77;;;2.00;;
21825;SDS011;11075;47.944;11.776;2022-11-09T07:02:54;2.80;;;2.17;;
21825;SDS011;11075;47.944;11.776;2022-11-09T07:05:20;3.07;;;2.17;;
21825;SDS011;11075;47.944;11.776;2022-11-09T07:07:48;5.07;;;2.30;;
21825;SDS011;11075;47.944;11.776;2022-11-09T07:10:15;2.27;;;2.03;;
21825;SDS011;11075;47.944;11.776;2022-11-09T07:12:43;3.40;;;1.83;;
21825;SDS011;11075;47.944;11.776;2022-11-09T07:15:11;3.20;;;1.90;;
21825;SDS011;11075;47.944;11.776;2022-11-09T07:17:39;4.17;;;2.30;;
21825;SDS011;11075;47.944;11.776;2022-11-09T07:20:06;2.23;;;1.93;;
21825;SDS011;11075;47.944;11.776;2022-11-09T07:22:35;3.17;;;1.90;;
21825;SDS011;11075;47.944;11.776;2022-11-09T07:25:05;3.20;;;1.80;;
21825;SDS011;11075;47.944;11.776;2022-11-09T07:27:33;3.10;;;1.40;;
21825;SDS011;11075;47.944;11.776;2022-11-09T07:30:01;2.03;;;1.37;;
21825;SDS011;11075;47.944;11.776;2022-11-09T07:32:36;2.47;;;1.67;;
21825;SDS011;11075;47.944;11.776;2022-11-09T07:35:24;3.37;;;1.70;;
21825;SDS011;11075;47.944;11.776;2022-11-09T07:37:51;1.80;;;1.43;;
21825;SDS011;11075;47.944;11.776;2022-11-09T07:40:18;4.47;;;1.20;;
21825;SDS011;11075;47.944;11.776;2022-11-09T07:42:45;1.20;;;1.10;;
21825;SDS011;11075;47.944;11.776;2022-11-09T07:45:13;1.80;;;1.10;;
21825;SDS011;11075;47.944;11.776;2022-11-09T07:47:40;2.03;;;1.13;;
21825;SDS011;11075;47.944;11.776;2022-11-09T07:50:08;2.10;;;1.20;;
21825;SDS011;11075;47.944;11.776;2022-11-09T07:52:35;1.40;;;0.90;;
21825;SDS011;11075;47.944;11.776;2022-11-09T07:55:02;1.20;;;0.80;;
21825;SDS011;11075;47.944;11.776;2022-11-09T07:57:29;1.23;;;0.90;;
21825;SDS011;11075;47.944;11.776;2022-11-09T07:59:55;4.80;;;1.03;;
21825;SDS011;11075;47.944;11.776;2022-11-09T08:02:23;3.43;;;1.13;;
21825;SDS011;11075;47.944;11.776;2022-11-09T08:04:50;1.50;;;1.10;;
21825;SDS011;11075;47.944;11.776;2022-11-09T08:07:16;1.50;;;1.20;;
21825;SDS011;11075;47.944;11.776;2022-11-09T08:09:43;1.80;;;1.00;;
21825;SDS011;11075;47.944;11.776;2022-11-09T08:12:10;1.40;;;0.93;;
21825;SDS011;11075;47.944;11.776;2022-11-09T08:14:38;3.33;;;1.20;;
21825;SDS011;11075;47.944;11.776;2022-11-09T08:17:05;3.40;;;1.00;;
21825;SDS011;11075;47.944;11.776;2022-11-09T08:19:31;4.23;;;1.00;;
21825;SDS011;11075;47.944;11.776;2022-11-09T08:21:58;3.30;;;1.07;;
21825;SDS011;11075;47.944;11.776;2022-11-09T08:24:26;4.10;;;1.20;;
21825;SDS011;11075;47.944;11.776;2022-11-09T08:26:53;3.30;;;1.30;;
21825;SDS011;11075;47.944;11.776;2022-11-09T08:29:21;1.20;;;0.93;;
21825;SDS011;11075;47.944;11.776;2022-11-09T08:31:48;2.17;;;1.30;;
21825;SDS011;11075;47.944;11.776;2022-11-09T08:34:16;1.53;;;1.00;;
21825;SDS011;11075;47.944;11.776;2022-11-09T08:36:44;4.33;;;1.20;;
21825;SDS011;11075;47.944;11.776;2022-11-09T08:39:11;0.93;;;0.83;;
21825;SDS011;11075;47.944;11.776;2022-11-09T08:41:38;6.00;;;1.17;;
21825;SDS011;11075;47.944;11.776;2022-11-09T08:44:05;2.90;;;0.90;;
21825;SDS011;11075;47.944;11.776;2022-11-09T08:46:32;4.50;;;1.40;;
21825;SDS011;11075;47.944;11.776;2022-11-09T08:49:06;1.43;;;0.90;;
21825;SDS011;11075;47.944;11.776;2022-11-09T08:51:32;2.17;;;0.80;;
21825;SDS011;11075;47.944;11.776;2022-11-09T08:53:59;3.90;;;0.90;;
21825;SDS011;11075;47.944;11.776;2022-11-09T08:56:26;2.60;;;0.97;;
21825;SDS011;11075;47.944;11.776;2022-11-09T08:58:54;1.00;;;0.90;;
21825;SDS011;11075;47.944;11.776;2022-11-09T09:01:21;2.33;;;1.00;;
21825;SDS011;11075;47.944;11.776;2022-11-09T09:03:48;2.03;;;0.80;;
21825;SDS011;11075;47.944;11.776;2022-11-09T09:06:15;1.60;;;0.70;;
21825;SDS011;11075;47.944;11.776;2022-11-09T09:08:41;0.80;;;0.70;;
21825;SDS011;11075;47.944;11.776;2022-11-09T09:11:09;0.75;;;0.68;;
21825;SDS011;11075;47.944;11.776;2022-11-09T09:13:36;2.13;;;0.90;;
21825;SDS011;11075;47.944;11.776;2022-11-09T09:16:12;2.00;;;0.60;;
21825;SDS011;11075;47.944;11.776;2022-11-09T09:18:41;3.25;;;0.70;;
21825;SDS011;11075;47.944;11.776;2022-11-09T09:21:09;1.88;;;0.98;;
21825;SDS011;11075;47.944;11.776;2022-11-09T09:23:37;2.55;;;0.60;;
21825;SDS011;11075;47.944;11.776;2022-11-09T09:26:04;1.15;;;0.60;;
21825;SDS011;11075;47.944;11.776;2022-11-09T09:28:31;1.58;;;0.60;;
21825;SDS011;11075;47.944;11.776;2022-11-09T09:30:59;2.20;;;0.70;;
21825;SDS011;11075;47.944;11.776;2022-11-09T09:33:27;0.88;;;0.60;;
21825;SDS011;11075;47.944;11.776;2022-11-09T09:35:54;3.20;;;0.70;;
21825;SDS011;11075;47.944;11.776;2022-11-09T09:38:23;2.40;;;0.80;;
21825;SDS011;11075;47.944;11.776;2022-11-09T09:46:12;0.93;;;0.60;;
21825;SDS011;11075;47.944;11.776;2022-11-09T09:49:06;0.75;;;0.60;;
21825;SDS011;11075;47.944;11.776;2022-11-09T09:51:44;0.90;;;0.35;;
21825;SDS011;11075;47.944;11.776;2022-11-09T09:54:30;1.08;;;0.30;;
21825;SDS011;11075;47.944;11.776;2022-11-09T09:57:06;1.25;;;0.60;;
21825;SDS011;11075;47.944;11.776;2022-11-09T09:59:48;1.80;;;0.82;;
21825;SDS011;11075;47.944;11.776;2022-11-09T10:02:19;1.25;;;0.80;;
21825;SDS011;11075;47.944;11.776;2022-11-09T10:04:55;1.98;;;0.60;;
21825;SDS011;11075;47.944;11.776;2022-11-09T10:10:36;2.10;;;0.70;;
21825;SDS011;11075;47.944;11.776;2022-11-09T10:20:51;1.55;;;0.57;;
21825;SDS011;11075;47.944;11.776;2022-11-09T10:26:16;0.95;;;0.50;;
21825;SDS011;11075;47.944;11.776;2022-11-09T10:28:47;0.88;;;0.68;;
21825;SDS011;11075;47.944;11.776;2022-11-09T10:31:40;0.57;;;0.50;;
21825;SDS011;11075;47.944;11.776;2022-11-09T10:34:14;1.48;;;0.80;;
21825;SDS011;11075;47.944;11.776;2022-11-09T10:37:03;1.10;;;0.50;;
21825;SDS011;11075;47.944;11.776;2022-11-09T10:39:43;1.05;;;0.60;;
21825;SDS011;11075;47.944;11.776;2022-11-09T10:42:36;2.42;;;0.70;;
21825;SDS011;11075;47.944;11.776;2022-11-09T10:45:32;1.00;;;0.80;;
21825;SDS011;11075;47.944;11.776;2022-11-09T10:48:28;2.35;;;0.70;;
21825;SDS011;11075;47.944;11.776;2022-11-09T10:51:31;3.25;;;1.40;;
21825;SDS011;11075;47.944;11.776;2022-11-09T10:54:26;2.47;;;0.60;;
21825;SDS011;11075;47.944;11.776;2022-11-09T10:57:16;2.13;;;0.60;;
21825;SDS011;11075;47.944;11.776;2022-11-09T11:00:03;1.15;;;0.65;;
21825;SDS011;11075;47.944;11.776;2022-11-09T11:02:50;2.35;;;0.70;;
21825;SDS011;11075;47.944;11.776;2022-11-09T11:05:37;3.00;;;1.00;;
21825;SDS011;11075;47.944;11.776;2022-11-09T11:08:34;3.80;;;1.00;;
21825;SDS011;11075;47.944;11.776;2022-11-09T11:14:30;3.28;;;1.73;;
21825;SDS011;11075;47.944;11.776;2022-11-09T11:20:35;1.10;;;0.70;;
21825;SDS011;11075;47.944;11.776;2022-11-09T11:23:22;5.88;;;1.15;;
21825;SDS011;11075;47.944;11.776;2022-11-09T11:32:30;2.67;;;0.60;;
21825;SDS011;11075;47.944;11.776;2022-11-09T11:35:17;2.33;;;0.90;;
21825;SDS011;11075;47.944;11.776;2022-11-09T11:38:25;2.25;;;0.90;;
21825;SDS011;11075;47.944;11.776;2022-11-09T11:41:35;1.17;;;0.80;;
21825;SDS011;11075;47.944;11.776;2022-11-09T11:51:12;2.70;;;0.68;;
21825;SDS011;11075;47.944;11.776;2022-11-09T11:55:06;2.13;;;0.57;;
21825;SDS011;11075;47.944;11.776;2022-11-09T12:00:49;1.55;;;1.15;;
21825;SDS011;11075;47.944;11.776;2022-11-09T12:04:00;1.40;;;1.13;;
21825;SDS011;11075;47.944;11.776;2022-11-09T12:07:25;0.95;;;0.70;;
21825;SDS011;11075;47.944;11.776;2022-11-09T12:10:41;1.48;;;0.80;;
21825;SDS011;11075;47.944;11.776;2022-11-09T12:22:38;2.30;;;0.93;;
21825;SDS011;11075;47.944;11.776;2022-11-09T12:28:55;1.08;;;0.93;;
21825;SDS011;11075;47.944;11.776;2022-11-09T12:32:11;1.80;;;1.20;;
21825;SDS011;11075;47.944;11.776;2022-11-09T12:35:20;2.47;;;1.33;;
21825;SDS011;11075;47.944;11.776;2022-11-09T12:40:59;3.58;;;1.33;;
21825;SDS011;11075;47.944;11.776;2022-11-09T12:46:49;5.63;;;3.10;;
21825;SDS011;11075;47.944;11.776;2022-11-09T12:49:41;4.38;;;2.10;;
21825;SDS011;11075;47.944;11.776;2022-11-09T12:52:28;2.40;;;1.58;;
21825;SDS011;11075;47.944;11.776;2022-11-09T12:55:31;2.08;;;1.10;;
21825;SDS011;11075;47.944;11.776;2022-11-09T12:58:34;4.32;;;1.38;;
21825;SDS011;11075;47.944;11.776;2022-11-09T13:04:18;2.47;;;1.60;;
21825;SDS011;11075;47.944;11.776;2022-11-09T13:09:54;3.45;;;1.55;;
21825;SDS011;11075;47.944;11.776;2022-11-09T13:12:41;2.05;;;1.30;;
21825;SDS011;11075;47.944;11.776;2022-11-09T13:15:28;5.70;;;4.63;;
21825;SDS011;11075;47.944;11.776;2022-11-09T13:21:35;2.55;;;1.10;;
21825;SDS011;11075;47.944;11.776;2022-11-09T13:33:21;2.30;;;1.50;;
21825;SDS011;11075;47.944;11.776;2022-11-09T13:42:22;3.67;;;1.30;;
21825;SDS011;11075;47.944;11.776;2022-11-09T13:45:33;2.50;;;1.52;;
21825;SDS011;11075;47.944;11.776;2022-11-09T13:48:39;3.38;;;1.58;;
21825;SDS011;11075;47.944;11.776;2022-11-09T13:54:27;4.38;;;1.95;;
21825;SDS011;11075;47.944;11.776;2022-11-09T13:57:14;3.33;;;1.77;;
21825;SDS011;11075;47.944;11.776;2022-11-09T14:00:03;5.80;;;1.90;;
21825;SDS011;11075;47.944;11.776;2022-11-09T14:03:00;1.90;;;1.63;;
21825;SDS011;11075;47.944;11.776;2022-11-09T14:05:52;4.60;;;1.13;;
21825;SDS011;11075;47.944;11.776;2022-11-09T14:08:41;3.53;;;1.45;;
21825;SDS011;11075;47.944;11.776;2022-11-09T14:17:56;12.02;;;10.00;;
21825;SDS011;11075;47.944;11.776;2022-11-09T14:20:57;5.05;;;3.35;;
21825;SDS011;11075;47.944;11.776;2022-11-09T14:24:01;5.32;;;3.60;;
21825;SDS011;11075;47.944;11.776;2022-11-09T14:29:55;2.90;;;1.38;;
21825;SDS011;11075;47.944;11.776;2022-11-09T14:32:45;6.57;;;3.95;;
21825;SDS011;11075;47.944;11.776;2022-11-09T14:35:36;2.28;;;1.80;;
21825;SDS011;11075;47.944;11.776;2022-11-09T14:38:24;4.50;;;1.67;;
21825;SDS011;11075;47.944;11.776;2022-11-09T14:41:19;2.92;;;1.17;;
21825;SDS011;11075;47.944;11.776;2022-11-09T14:44:08;3.60;;;1.17;;
21825;SDS011;11075;47.944;11.776;2022-11-09T14:47:03;3.60;;;1.55;;
21825;SDS011;11075;47.944;11.776;2022-11-09T14:49:50;3.42;;;1.67;;
21825;SDS011;11075;47.944;11.776;2022-11-09T14:52:36;6.40;;;1.20;;
21825;SDS011;11075;47.944;11.776;2022-11-09T14:55:22;10.02;;;1.73;;
21825;SDS011;11075;47.944;11.776;2022-11-09T14:58:10;2.22;;;1.10;;
21825;SDS011;11075;47.944;11.776;2022-11-09T15:01:05;6.18;;;1.50;;
21825;SDS011;11075;47.944;11.776;2022-11-09T15:07:01;3.67;;;0.88;;
21825;SDS011;11075;47.944;11.776;2022-11-09T15:09:50;4.18;;;1.30;;
21825;SDS011;11075;47.944;11.776;2022-11-09T15:12:50;3.80;;;1.57;;
21825;SDS011;11075;47.944;11.776;2022-11-09T15:15:38;2.13;;;1.10;;
21825;SDS011;11075;47.944;11.776;2022-11-09T15:18:25;3.47;;;1.03;;
21825;SDS011;11075;47.944;11.776;2022-11-09T15:21:19;1.17;;;0.87;;
21825;SDS011;11075;47.944;11.776;2022-11-09T15:24:17;3.07;;;1.10;;
21825;SDS011;11075;47.944;11.776;2022-11-09T15:27:25;2.47;;;1.10;;
21825;SDS011;11075;47.944;11.776;2022-11-09T15:36:05;3.37;;;1.00;;
21825;SDS011;11075;47.944;11.776;2022-11-09T15:42:02;3.87;;;0.93;;
21825;SDS011;11075;47.944;11.776;2022-11-09T15:44:52;1.37;;;1.13;;
21825;SDS011;11075;47.944;11.776;2022-11-09T15:47:39;5.67;;;1.10;;
21825;SDS011;11075;47.944;11.776;2022-11-09T15:50:26;1.83;;;1.00;;
21825;SDS011;11075;47.944;11.776;2022-11-09T15:53:11;5.53;;;1.43;;
21825;SDS011;11075;47.944;11.776;2022-11-09T15:55:58;3.77;;;1.47;;
21825;SDS011;11075;47.944;11.776;2022-11-09T15:58:44;2.80;;;1.27;;
21825;SDS011;11075;47.944;11.776;2022-11-09T16:01:32;3.13;;;1.30;;
21825;SDS011;11075;47.944;11.776;2022-11-09T16:04:18;4.83;;;1.30;;
21825;SDS011;11075;47.944;11.776;2022-11-09T16:07:04;2.97;;;1.10;;
21825;SDS011;11075;47.944;11.776;2022-11-09T16:09:49;3.60;;;1.10;;
21825;SDS011;11075;47.944;11.776;2022-11-09T16:12:36;5.33;;;1.20;;
21825;SDS011;11075;47.944;11.776;2022-11-09T16:15:26;4.97;;;1.13;;
21825;SDS011;11075;47.944;11.776;2022-11-09T16:18:11;1.53;;;1.10;;
21825;SDS011;11075;47.944;11.776;2022-11-09T16:20:57;2.47;;;1.10;;
21825;SDS011;11075;47.944;11.776;2022-11-09T16:23:50;5.73;;;1.47;;
21825;SDS011;11075;47.944;11.776;2022-11-09T16:26:42;4.73;;;1.40;;
21825;SDS011;11075;47.944;11.776;2022-11-09T16:29:29;1.10;;;1.00;;
21825;SDS011;11075;47.944;11.776;2022-11-09T16:32:17;2.30;;;1.40;;
21825;SDS011;11075;47.944;11.776;2022-11-09T16:35:04;1.70;;;1.20;;
21825;SDS011;11075;47.944;11.776;2022-11-09T16:38:10;2.27;;;1.60;;
21825;SDS011;11075;47.944;11.776;2022-11-09T16:40:57;3.13;;;1.50;;
21825;SDS011;11075;47.944;11.776;2022-11-09T16:43:46;1.93;;;1.20;;
21825;SDS011;11075;47.944;11.776;2022-11-09T16:46:34;4.13;;;1.53;;
21825;SDS011;11075;47.944;11.776;2022-11-09T16:49:20;3.43;;;1.40;;
21825;SDS011;11075;47.944;11.776;2022-11-09T16:52:05;5.83;;;1.43;;
21825;SDS011;11075;47.944;11.776;2022-11-09T16:54:50;2.47;;;1.53;;
21825;SDS011;11075;47.944;11.776;2022-11-09T16:57:36;1.90;;;1.37;;
21825;SDS011;11075;47.944;11.776;2022-11-09T17:00:21;4.90;;;1.83;;
21825;SDS011;11075;47.944;11.776;2022-11-09T17:03:21;4.07;;;1.63;;
21825;SDS011;11075;47.944;11.776;2022-11-09T17:06:07;1.53;;;1.37;;
21825;SDS011;11075;47.944;11.776;2022-11-09T17:08:55;5.67;;;3.00;;
21825;SDS011;11075;47.944;11.776;2022-11-09T17:11:40;8.37;;;2.03;;
21825;SDS011;11075;47.944;11.776;2022-11-09T17:14:27;2.90;;;1.67;;
21825;SDS011;11075;47.944;11.776;2022-11-09T17:17:12;4.17;;;1.53;;
21825;SDS011;11075;47.944;11.776;2022-11-09T17:20:05;3.00;;;1.40;;
21825;SDS011;11075;47.944;11.776;2022-11-09T17:22:51;3.43;;;1.50;;
21825;SDS011;11075;47.944;11.776;2022-11-09T17:25:36;5.17;;;2.27;;